createdAt,value
2022-11-02T00:03:21.894Z,15.07
2022-11-02T00:10:56.840Z,18.80
2022-11-02T00:18:31.984Z,17.33
2022-11-02T00:26:07.081Z,18.60
2022-11-02T00:33:40.833Z,14.70
2022-11-02T00:41:16.150Z,17.88
2022-11-02T00:48:49.928Z,14.30
2022-11-02T00:56:24.999Z,14.93
2022-11-02T01:03:59.026Z,17.08
2022-11-02T01:11:34.032Z,13.00
2022-11-02T01:19:09.320Z,12.88
2022-11-02T01:26:44.387Z,16.05
2022-11-02T01:34:18.447Z,13.40
2022-11-02T01:41:55.374Z,13.10
2022-11-02T01:49:32.535Z,13.32
2022-11-02T01:57:09.793Z,10.73
2022-11-02T02:04:45.003Z,11.75
2022-11-02T02:12:21.189Z,9.40
2022-11-02T02:19:59.495Z,11.73
2022-11-02T02:27:43.938Z,12.05
2022-11-02T02:35:25.528Z,12.37
2022-11-02T02:43:06.723Z,9.20
2022-11-02T02:50:45.136Z,7.68
2022-11-02T02:58:23.747Z,10.43
2022-11-02T03:06:05.180Z,7.20
2022-11-02T03:13:49.743Z,6.88
2022-11-02T03:21:29.439Z,6.90
2022-11-02T03:29:09.901Z,6.22
2022-11-02T03:36:49.246Z,5.55
2022-11-02T03:44:27.748Z,9.82
2022-11-02T03:52:06.043Z,4.45
2022-11-02T03:59:41.160Z,4.18
2022-11-02T04:07:15.155Z,3.30
2022-11-02T04:14:50.169Z,7.03
2022-11-02T04:22:42.639Z,4.18
2022-11-02T04:30:19.965Z,4.65
2022-11-02T04:38:11.341Z,4.63
2022-11-02T04:45:46.312Z,4.78
2022-11-02T04:53:19.968Z,3.95
2022-11-02T05:00:55.089Z,4.03
2022-11-02T05:08:29.112Z,3.75
2022-11-02T05:16:04.273Z,4.50
2022-11-02T05:23:38.674Z,4.28
2022-11-02T05:31:13.664Z,3.13
2022-11-02T05:38:47.513Z,4.15
2022-11-02T05:46:22.551Z,4.23
2022-11-02T05:53:56.368Z,3.92
2022-11-02T06:01:31.633Z,3.95
2022-11-02T06:09:07.244Z,7.75
2022-11-02T06:16:42.549Z,5.90
2022-11-02T06:24:17.145Z,5.25
2022-11-02T06:31:52.136Z,5.13
2022-11-02T06:39:25.833Z,3.35
2022-11-02T06:47:00.863Z,4.85
2022-11-02T06:54:34.577Z,6.80
2022-11-02T07:02:10.071Z,7.25
2022-11-02T07:09:43.772Z,3.05
2022-11-02T07:17:19.010Z,6.05
2022-11-02T07:24:53.208Z,10.25
2022-11-02T07:32:28.177Z,5.20
2022-11-02T07:40:01.868Z,3.15
2022-11-02T07:47:42.796Z,5.53
2022-11-02T07:55:18.788Z,7.78
2022-11-02T08:02:57.216Z,10.88
2022-11-02T08:10:36.939Z,5.47
2022-11-02T08:18:16.748Z,7.82
2022-11-02T08:25:52.114Z,4.82
2022-11-02T08:33:27.137Z,6.25
2022-11-02T08:41:00.813Z,4.05
2022-11-02T08:48:35.822Z,6.22
2022-11-02T08:56:09.484Z,10.23
2022-11-02T09:03:44.671Z,5.65
2022-11-02T09:11:18.321Z,10.82
2022-11-02T09:18:53.491Z,4.60
2022-11-02T09:26:27.955Z,9.02
2022-11-02T09:34:03.293Z,9.55
2022-11-02T09:41:42.465Z,10.75
2022-11-02T09:49:20.777Z,6.28
2022-11-02T09:56:59.033Z,6.72
2022-11-02T10:04:50.485Z,8.00
2022-11-02T10:12:31.228Z,11.65
2022-11-02T10:20:16.068Z,4.70
2022-11-02T10:27:52.821Z,6.20
2022-11-02T10:35:51.306Z,6.50
2022-11-02T10:43:51.790Z,10.05
2022-11-02T10:51:27.357Z,7.15
2022-11-02T10:59:05.338Z,9.00
2022-11-02T11:06:43.482Z,9.30
2022-11-02T11:22:27.432Z,7.43
2022-11-02T11:30:01.149Z,5.75
2022-11-02T11:37:36.188Z,4.47
2022-11-02T11:53:11.051Z,6.53
2022-11-02T12:00:45.244Z,8.25
2022-11-02T12:08:35.708Z,8.00
2022-11-02T12:16:16.206Z,7.50
2022-11-02T12:24:10.915Z,4.88
2022-11-02T12:31:47.049Z,3.33
2022-11-02T12:39:32.832Z,3.30
2022-11-02T12:47:17.863Z,3.42
2022-11-02T12:54:56.726Z,7.13
2022-11-02T13:02:34.375Z,4.47
2022-11-02T13:10:18.947Z,5.00
2022-11-02T13:17:55.686Z,4.40
2022-11-02T13:25:35.430Z,5.10
2022-11-02T13:33:16.942Z,4.97
2022-11-02T13:41:03.543Z,2.78
2022-11-02T13:48:48.883Z,5.70
2022-11-02T13:56:26.808Z,5.47
2022-11-02T14:04:06.395Z,6.40
2022-11-02T14:11:49.608Z,4.80
2022-11-02T14:19:25.274Z,6.13
2022-11-02T14:27:01.455Z,4.72
2022-11-02T14:34:57.708Z,4.20
2022-11-02T14:42:47.847Z,4.60
2022-11-02T14:50:22.255Z,4.97
2022-11-02T14:58:04.265Z,5.23
2022-11-02T15:05:41.816Z,7.70
2022-11-02T15:13:37.955Z,3.38
2022-11-02T15:21:28.668Z,3.47
2022-11-02T15:29:06.632Z,2.92
2022-11-02T15:36:43.938Z,5.40
2022-11-02T15:44:42.513Z,4.57
2022-11-02T15:52:24.772Z,5.55
2022-11-02T16:00:30.364Z,2.85
2022-11-02T16:08:10.772Z,4.18
2022-11-02T16:15:48.720Z,2.72
2022-11-02T16:23:26.110Z,6.10
2022-11-02T16:31:18.936Z,5.00
2022-11-02T16:38:59.495Z,3.22
2022-11-02T16:46:43.360Z,3.50
2022-11-02T16:54:30.664Z,3.78
2022-11-02T17:02:06.742Z,6.85
2022-11-02T17:09:41.120Z,3.03
2022-11-02T17:17:36.474Z,3.83
2022-11-02T17:25:14.903Z,4.13
2022-11-02T17:32:50.339Z,4.80
2022-11-02T17:40:24.342Z,5.43
2022-11-02T17:48:00.788Z,5.18
2022-11-02T17:55:37.571Z,8.50
2022-11-02T18:03:17.003Z,8.60
2022-11-02T18:10:53.120Z,4.93
2022-11-02T18:18:28.511Z,3.90
2022-11-02T18:26:02.225Z,7.00
2022-11-02T18:33:37.272Z,6.82
2022-11-02T18:41:25.540Z,10.15
2022-11-02T18:49:02.113Z,7.88
2022-11-02T18:56:36.113Z,5.40
2022-11-02T19:04:16.986Z,5.03
2022-11-02T19:11:54.570Z,11.98
2022-11-02T19:19:29.783Z,6.50
2022-11-02T19:27:03.936Z,11.93
2022-11-02T19:34:39.378Z,9.27
2022-11-02T19:42:13.150Z,10.20
2022-11-02T19:49:48.146Z,10.27
2022-11-02T19:57:21.861Z,12.15
2022-11-02T20:04:57.280Z,15.68
2022-11-02T20:12:33.978Z,18.02
2022-11-02T20:20:09.986Z,18.70
2022-11-02T20:27:46.316Z,21.25
2022-11-02T20:35:25.544Z,18.55
2022-11-02T20:43:00.240Z,20.15
2022-11-02T20:50:36.372Z,22.30
2022-11-02T20:58:10.079Z,25.75
2022-11-02T21:05:45.420Z,20.45
2022-11-02T21:13:36.600Z,24.88
2022-11-02T21:21:13.764Z,26.05
2022-11-02T21:28:47.621Z,31.70
2022-11-02T21:36:22.848Z,24.57
2022-11-02T21:43:56.986Z,21.55
2022-11-02T21:51:32.083Z,28.60
2022-11-02T21:59:06.321Z,24.25
2022-11-02T22:06:42.336Z,25.57
2022-11-02T22:14:16.010Z,21.98
2022-11-02T22:21:51.157Z,19.95
2022-11-02T22:29:25.469Z,24.65
2022-11-02T22:37:20.416Z,22.85
2022-11-02T22:44:55.221Z,22.20
2022-11-02T23:00:05.594Z,20.63
2022-11-02T23:07:40.559Z,20.45
2022-11-02T23:15:14.569Z,22.10
2022-11-02T23:23:07.620Z,20.07
2022-11-02T23:30:59.665Z,16.20
2022-11-02T23:38:48.623Z,16.65
2022-11-02T23:46:22.434Z,16.65
2022-11-02T23:54:20.556Z,13.40
